createdAt,value
2019-06-27T00:00:09.388Z,22.70
2019-06-27T00:01:14.449Z,22.70
2019-06-27T00:02:19.471Z,22.70
2019-06-27T00:03:24.471Z,22.60
2019-06-27T00:04:30.599Z,22.60
2019-06-27T00:05:35.441Z,22.50
2019-06-27T00:06:40.569Z,22.50
2019-06-27T00:07:45.463Z,22.50
2019-06-27T00:08:50.517Z,22.50
2019-06-27T00:09:55.358Z,22.40
2019-06-27T00:11:00.517Z,22.40
2019-06-27T00:12:05.583Z,22.30
2019-06-27T00:13:11.788Z,22.30
2019-06-27T00:14:16.590Z,22.30
2019-06-27T00:15:21.611Z,22.30
2019-06-27T00:16:26.443Z,22.20
2019-06-27T00:17:31.494Z,22.20
2019-06-27T00:18:36.311Z,22.10
2019-06-27T00:19:41.439Z,22.10
2019-06-27T00:20:46.347Z,22.10
2019-06-27T00:21:51.371Z,22.00
2019-06-27T00:22:56.294Z,22.00
2019-06-27T00:24:01.336Z,22.00
2019-06-27T00:25:06.662Z,21.90
2019-06-27T00:26:11.749Z,21.90
2019-06-27T00:27:16.642Z,21.80
2019-06-27T00:28:21.685Z,21.80
2019-06-27T00:29:26.591Z,21.70
2019-06-27T00:30:31.630Z,21.70
2019-06-27T00:31:36.487Z,21.60
2019-06-27T00:32:41.548Z,21.50
2019-06-27T00:33:46.417Z,21.50
2019-06-27T00:34:51.445Z,21.50
2019-06-27T00:35:56.310Z,21.40
2019-06-27T00:37:01.362Z,21.40
2019-06-27T00:38:06.485Z,21.40
2019-06-27T00:39:11.503Z,21.40
2019-06-27T00:40:16.742Z,21.30
2019-06-27T00:41:21.809Z,21.30
2019-06-27T00:42:26.628Z,21.20
2019-06-27T00:43:31.735Z,21.20
2019-06-27T00:44:36.555Z,21.20
2019-06-27T00:45:41.563Z,21.10
2019-06-27T00:46:46.420Z,21.10
2019-06-27T00:47:51.422Z,21.00
2019-06-27T00:48:56.334Z,21.00
2019-06-27T00:50:01.354Z,20.90
2019-06-27T00:51:07.356Z,20.90
2019-06-27T00:52:31.613Z,20.80
2019-06-27T00:53:36.538Z,20.80
2019-06-27T00:54:41.526Z,20.80
2019-06-27T00:55:46.358Z,20.80
2019-06-27T00:56:51.504Z,20.80
2019-06-27T00:57:56.434Z,20.70
2019-06-27T00:59:01.490Z,20.70
2019-06-27T01:00:07.112Z,20.70
2019-06-27T01:01:12.606Z,20.70
2019-06-27T01:02:17.436Z,20.60
2019-06-27T01:03:22.494Z,20.60
2019-06-27T01:04:27.479Z,20.50
2019-06-27T01:05:32.520Z,20.40
2019-06-27T01:06:37.377Z,20.40
2019-06-27T01:07:42.404Z,20.40
2019-06-27T01:08:47.312Z,20.30
2019-06-27T01:09:52.335Z,20.30
2019-06-27T01:10:57.154Z,20.20
2019-06-27T01:12:02.337Z,20.20
2019-06-27T01:13:07.317Z,20.20
2019-06-27T01:14:12.403Z,20.20
2019-06-27T01:15:17.357Z,20.10
2019-06-27T01:16:22.459Z,20.00
2019-06-27T01:17:27.284Z,20.00
2019-06-27T01:18:32.418Z,20.00
2019-06-27T01:19:37.249Z,19.90
2019-06-27T01:20:42.348Z,19.90
2019-06-27T01:21:48.287Z,19.80
2019-06-27T01:22:53.363Z,19.80
2019-06-27T01:23:58.749Z,19.80
2019-06-27T01:25:03.961Z,19.80
2019-06-27T01:26:08.768Z,19.70
2019-06-27T01:27:28.841Z,19.60
2019-06-27T01:28:20.415Z,19.60
2019-06-27T01:29:25.430Z,19.60
2019-06-27T01:30:30.335Z,19.60
2019-06-27T01:31:35.354Z,19.60
2019-06-27T01:32:40.226Z,19.60
2019-06-27T01:33:45.216Z,19.50
2019-06-27T01:34:50.046Z,19.50
2019-06-27T01:35:55.127Z,19.50
2019-06-27T01:36:59.931Z,19.50
2019-06-27T01:38:05.161Z,19.40
2019-06-27T01:39:09.957Z,19.40
2019-06-27T01:40:15.443Z,19.40
2019-06-27T01:41:20.365Z,19.40
2019-06-27T01:42:25.355Z,19.30
2019-06-27T01:43:31.290Z,19.30
2019-06-27T01:44:40.633Z,19.30
2019-06-27T01:45:56.847Z,19.30
2019-06-27T01:47:02.317Z,19.30
2019-06-27T01:48:07.295Z,19.20
2019-06-27T01:49:12.328Z,19.20
2019-06-27T01:50:17.166Z,19.20
2019-06-27T01:51:22.261Z,19.20
2019-06-27T01:52:27.102Z,19.10
2019-06-27T01:53:32.370Z,19.10
2019-06-27T01:54:37.228Z,19.20
2019-06-27T01:55:42.754Z,19.20
2019-06-27T01:56:47.698Z,19.20
2019-06-27T01:57:52.787Z,19.10
2019-06-27T01:58:57.624Z,19.10
2019-06-27T02:00:02.780Z,19.10
2019-06-27T02:01:07.858Z,19.10
2019-06-27T02:02:13.029Z,19.00
2019-06-27T02:03:19.055Z,18.90
2019-06-27T02:04:24.079Z,18.80
2019-06-27T02:05:28.968Z,18.80
2019-06-27T02:06:34.012Z,18.80
2019-06-27T02:07:38.934Z,18.80
2019-06-27T02:08:43.949Z,18.70
2019-06-27T02:09:48.791Z,18.70
2019-06-27T02:10:53.877Z,18.60
2019-06-27T02:11:58.814Z,18.60
2019-06-27T02:13:03.854Z,18.50
2019-06-27T02:14:08.677Z,18.50
2019-06-27T02:15:14.020Z,18.50
2019-06-27T02:16:18.924Z,18.50
2019-06-27T02:17:23.933Z,18.40
2019-06-27T02:18:28.769Z,18.40
2019-06-27T02:19:33.816Z,18.40
2019-06-27T02:20:38.633Z,18.40
2019-06-27T02:21:44.953Z,18.30
2019-06-27T02:22:52.399Z,18.30
2019-06-27T02:23:57.461Z,18.20
2019-06-27T02:25:02.249Z,18.30
2019-06-27T02:26:08.344Z,18.30
2019-06-27T02:27:13.197Z,18.20
2019-06-27T02:28:18.207Z,18.20
2019-06-27T02:29:23.024Z,18.20
2019-06-27T02:30:41.656Z,18.20
2019-06-27T02:31:46.506Z,18.20
2019-06-27T02:32:51.557Z,18.10
2019-06-27T02:33:56.369Z,18.10
2019-06-27T02:35:01.404Z,18.00
2019-06-27T02:36:07.373Z,18.00
2019-06-27T02:37:12.402Z,18.00
2019-06-27T02:38:17.281Z,18.00
2019-06-27T02:39:22.287Z,18.00
2019-06-27T02:40:27.127Z,18.00
2019-06-27T02:41:32.418Z,18.00
2019-06-27T02:42:37.295Z,18.10
2019-06-27T02:43:42.335Z,18.10
2019-06-27T02:44:47.268Z,18.10
2019-06-27T02:45:52.363Z,18.10
2019-06-27T02:46:57.254Z,18.10
2019-06-27T02:48:02.447Z,18.10
2019-06-27T02:49:07.447Z,18.00
2019-06-27T02:50:12.821Z,18.00
2019-06-27T02:51:17.681Z,18.00
2019-06-27T02:52:22.719Z,18.00
2019-06-27T02:53:27.605Z,18.00
2019-06-27T02:54:32.673Z,18.10
2019-06-27T02:55:37.477Z,18.10
2019-06-27T02:56:42.484Z,18.10
2019-06-27T02:57:47.380Z,18.10
2019-06-27T02:58:52.428Z,18.10
2019-06-27T02:59:57.282Z,18.00
2019-06-27T03:01:02.279Z,18.00
2019-06-27T03:02:07.217Z,18.00
2019-06-27T03:03:12.331Z,18.00
2019-06-27T03:04:17.131Z,18.00
2019-06-27T03:05:22.182Z,18.00
2019-06-27T03:06:27.153Z,18.00
2019-06-27T03:07:32.225Z,18.00
2019-06-27T03:08:37.069Z,18.00
2019-06-27T03:09:42.188Z,18.00
2019-06-27T03:10:47.003Z,17.90
2019-06-27T03:11:52.140Z,17.90
2019-06-27T03:12:56.964Z,17.90
2019-06-27T03:14:01.993Z,17.90
2019-06-27T03:15:07.431Z,17.80
2019-06-27T03:16:12.488Z,17.80
2019-06-27T03:17:17.284Z,17.70
2019-06-27T03:18:22.365Z,17.70
2019-06-27T03:19:27.363Z,17.70
2019-06-27T03:20:32.425Z,17.70
2019-06-27T03:21:37.256Z,17.70
2019-06-27T03:22:42.235Z,17.70
2019-06-27T03:23:47.039Z,17.70
2019-06-27T03:24:52.228Z,17.70
2019-06-27T03:25:57.067Z,17.80
2019-06-27T03:27:02.174Z,17.80
2019-06-27T03:28:07.279Z,17.70
2019-06-27T03:29:12.386Z,17.70
2019-06-27T03:30:17.360Z,17.70
2019-06-27T03:31:22.460Z,17.80
2019-06-27T03:32:28.424Z,17.80
2019-06-27T03:33:33.600Z,17.80
2019-06-27T03:34:38.421Z,17.80
2019-06-27T03:35:43.497Z,17.80
2019-06-27T03:36:48.426Z,17.70
2019-06-27T03:37:53.518Z,17.70
2019-06-27T03:38:58.779Z,17.70
2019-06-27T03:40:04.003Z,17.70
2019-06-27T03:41:08.945Z,17.80
2019-06-27T03:42:14.038Z,17.80
2019-06-27T03:43:18.851Z,17.80
2019-06-27T03:44:24.032Z,17.80
2019-06-27T03:45:28.852Z,17.90
2019-06-27T03:46:33.880Z,17.90
2019-06-27T03:47:39.699Z,17.90
2019-06-27T03:48:44.923Z,17.90
2019-06-27T03:49:49.820Z,17.80
2019-06-27T03:50:56.427Z,17.70
2019-06-27T03:52:01.644Z,17.70
2019-06-27T03:53:06.666Z,17.70
2019-06-27T03:54:11.645Z,17.70
2019-06-27T03:55:16.781Z,17.80
2019-06-27T03:56:21.719Z,17.80
2019-06-27T03:57:26.831Z,17.80
2019-06-27T03:58:31.723Z,17.80
2019-06-27T03:59:36.818Z,17.80
2019-06-27T04:00:41.691Z,17.80
2019-06-27T04:01:46.756Z,17.80
2019-06-27T04:02:51.622Z,17.80
2019-06-27T04:03:56.682Z,17.70
2019-06-27T04:05:01.506Z,17.80
2019-06-27T04:06:06.877Z,17.80
2019-06-27T04:07:11.847Z,17.80
2019-06-27T04:08:16.928Z,17.80
2019-06-27T04:09:21.779Z,17.80
2019-06-27T04:10:27.155Z,17.80
2019-06-27T04:11:32.141Z,17.80
2019-06-27T04:12:37.198Z,17.70
2019-06-27T04:13:42.226Z,17.70
2019-06-27T04:14:47.307Z,17.70
2019-06-27T04:15:52.269Z,17.70
2019-06-27T04:16:57.291Z,17.70
2019-06-27T04:18:02.161Z,17.60
2019-06-27T04:19:07.651Z,17.60
2019-06-27T04:20:12.507Z,17.50
2019-06-27T04:21:17.501Z,17.50
2019-06-27T04:22:22.397Z,17.60
2019-06-27T04:23:27.494Z,17.60
2019-06-27T04:24:32.451Z,17.70
2019-06-27T04:25:37.600Z,17.70
2019-06-27T04:26:42.491Z,17.60
2019-06-27T04:27:47.573Z,17.60
2019-06-27T04:28:52.355Z,17.50
2019-06-27T04:29:57.435Z,17.50
2019-06-27T04:31:02.363Z,17.40
2019-06-27T04:32:08.509Z,17.30
2019-06-27T04:33:13.324Z,17.20
2019-06-27T04:34:19.913Z,17.20
2019-06-27T04:35:24.814Z,17.10
2019-06-27T04:36:29.859Z,17.00
2019-06-27T04:37:34.671Z,17.00
2019-06-27T04:38:39.703Z,16.90
2019-06-27T04:39:44.544Z,16.90
2019-06-27T04:40:49.577Z,16.90
2019-06-27T04:41:54.383Z,16.90
2019-06-27T04:42:59.407Z,16.80
2019-06-27T04:44:04.376Z,16.90
2019-06-27T04:45:09.623Z,16.90
2019-06-27T04:46:14.631Z,16.90
2019-06-27T04:47:19.711Z,16.90
2019-06-27T04:48:24.614Z,16.90
2019-06-27T04:49:29.660Z,17.00
2019-06-27T04:50:34.495Z,17.00
2019-06-27T04:51:39.549Z,17.00
2019-06-27T04:52:44.402Z,17.10
2019-06-27T04:53:49.497Z,17.10
2019-06-27T04:54:55.128Z,17.10
2019-06-27T04:56:00.175Z,17.10
2019-06-27T04:57:05.107Z,17.10
2019-06-27T04:58:10.186Z,17.10
2019-06-27T04:59:15.036Z,17.10
2019-06-27T05:00:26.993Z,17.10
2019-06-27T05:01:31.843Z,17.00
2019-06-27T05:02:37.279Z,17.00
2019-06-27T05:03:42.164Z,17.00
2019-06-27T05:04:47.252Z,17.10
2019-06-27T05:05:52.164Z,17.10
2019-06-27T05:06:57.167Z,17.10
2019-06-27T05:08:01.985Z,17.00
2019-06-27T05:09:07.074Z,17.00
2019-06-27T05:10:11.984Z,17.10
2019-06-27T05:11:17.068Z,17.10
2019-06-27T05:12:21.984Z,17.10
2019-06-27T05:13:27.112Z,17.10
2019-06-27T05:14:32.724Z,17.10
2019-06-27T05:15:37.945Z,17.10
2019-06-27T05:16:42.800Z,17.10
2019-06-27T05:17:48.208Z,17.10
2019-06-27T05:18:53.155Z,17.20
2019-06-27T05:20:02.935Z,17.20
2019-06-27T05:21:05.707Z,17.20
2019-06-27T05:22:11.691Z,17.20
2019-06-27T05:23:16.606Z,17.20
2019-06-27T05:24:21.703Z,17.20
2019-06-27T05:25:29.576Z,17.20
2019-06-27T05:26:34.278Z,17.10
2019-06-27T05:27:39.075Z,17.00
2019-06-27T05:28:44.211Z,17.10
2019-06-27T05:29:49.071Z,17.10
2019-06-27T05:30:54.124Z,17.00
2019-06-27T05:31:58.950Z,17.10
2019-06-27T05:33:04.048Z,17.20
2019-06-27T05:34:08.863Z,17.20
2019-06-27T05:35:14.242Z,17.30
2019-06-27T05:36:19.116Z,17.40
2019-06-27T05:37:24.102Z,17.50
2019-06-27T05:38:29.189Z,17.70
2019-06-27T05:39:34.253Z,17.80
2019-06-27T05:40:39.089Z,17.90
2019-06-27T05:41:44.153Z,18.00
2019-06-27T05:42:49.019Z,18.20
2019-06-27T05:43:54.096Z,18.20
2019-06-27T05:44:58.898Z,18.40
2019-06-27T05:46:04.109Z,18.40
2019-06-27T05:47:09.998Z,18.40
2019-06-27T05:48:16.128Z,18.40
2019-06-27T05:49:21.115Z,18.50
2019-06-27T05:50:26.122Z,18.50
2019-06-27T05:51:31.012Z,18.60
2019-06-27T05:52:36.146Z,18.70
2019-06-27T05:53:41.044Z,18.70
2019-06-27T05:54:46.060Z,18.80
2019-06-27T05:55:51.250Z,18.90
2019-06-27T05:56:56.325Z,19.00
2019-06-27T05:58:02.118Z,19.30
2019-06-27T05:59:07.243Z,19.60
2019-06-27T06:00:27.501Z,19.70
2019-06-27T06:01:19.918Z,19.80
2019-06-27T06:02:24.776Z,19.90
2019-06-27T06:03:29.839Z,19.90
2019-06-27T06:04:34.714Z,19.90
2019-06-27T06:05:40.686Z,19.90
2019-06-27T06:06:45.495Z,19.80
2019-06-27T06:07:50.550Z,19.90
2019-06-27T06:08:55.362Z,20.00
2019-06-27T06:10:00.387Z,20.20
2019-06-27T06:11:05.211Z,20.50
2019-06-27T06:12:10.216Z,20.70
2019-06-27T06:13:15.131Z,20.80
2019-06-27T06:14:20.137Z,20.90
2019-06-27T06:15:24.957Z,21.10
2019-06-27T06:16:30.042Z,21.30
2019-06-27T06:17:34.939Z,21.50
2019-06-27T06:18:39.914Z,21.70
2019-06-27T06:19:44.771Z,21.90
2019-06-27T06:20:49.925Z,22.20
2019-06-27T06:21:54.989Z,22.30
2019-06-27T06:23:00.278Z,22.20
2019-06-27T06:24:05.153Z,22.20
2019-06-27T06:25:10.439Z,22.20
2019-06-27T06:26:15.312Z,22.30
2019-06-27T06:27:20.414Z,22.20
2019-06-27T06:28:25.207Z,22.20
2019-06-27T06:29:30.291Z,22.50
2019-06-27T06:30:44.547Z,22.60
2019-06-27T06:31:41.834Z,22.50
2019-06-27T06:32:46.651Z,22.60
2019-06-27T06:33:52.683Z,22.60
2019-06-27T06:34:57.513Z,22.60
2019-06-27T06:36:02.634Z,22.60
2019-06-27T06:37:08.259Z,22.70
2019-06-27T06:38:13.523Z,22.70
2019-06-27T06:39:18.344Z,22.80
2019-06-27T06:40:23.745Z,22.90
2019-06-27T06:41:31.001Z,23.20
2019-06-27T06:42:36.165Z,23.60
2019-06-27T06:43:41.012Z,23.70
2019-06-27T06:44:46.128Z,23.80
2019-06-27T06:45:50.981Z,23.80
2019-06-27T06:46:56.029Z,23.90
2019-06-27T06:48:00.858Z,24.10
2019-06-27T06:49:05.872Z,24.00
2019-06-27T06:50:11.535Z,24.00
2019-06-27T06:51:16.596Z,24.10
2019-06-27T06:52:21.394Z,24.20
2019-06-27T06:53:26.407Z,24.30
2019-06-27T06:54:31.308Z,24.40
2019-06-27T06:55:36.396Z,24.40
2019-06-27T06:56:41.289Z,24.00
2019-06-27T06:57:46.300Z,23.50
2019-06-27T06:58:51.159Z,23.30
2019-06-27T06:59:56.166Z,23.10
2019-06-27T07:01:02.588Z,22.90
2019-06-27T07:02:08.016Z,23.00
2019-06-27T07:03:12.988Z,23.00
2019-06-27T07:04:18.107Z,23.20
2019-06-27T07:05:23.999Z,23.50
2019-06-27T07:06:29.121Z,23.50
2019-06-27T07:07:34.008Z,23.50
2019-06-27T07:08:39.097Z,23.50
2019-06-27T07:09:43.994Z,23.50
2019-06-27T07:10:48.980Z,23.70
2019-06-27T07:11:53.856Z,23.80
2019-06-27T07:12:59.405Z,23.90
2019-06-27T07:14:04.237Z,24.10
2019-06-27T07:15:09.596Z,24.00
2019-06-27T07:16:14.468Z,23.90
2019-06-27T07:17:19.599Z,23.80
2019-06-27T07:18:24.419Z,23.70
2019-06-27T07:19:29.476Z,23.70
2019-06-27T07:20:34.428Z,23.70
2019-06-27T07:21:39.490Z,23.60
2019-06-27T07:22:44.447Z,23.70
2019-06-27T07:23:49.701Z,23.90
2019-06-27T07:24:54.683Z,24.00
2019-06-27T07:25:59.833Z,24.30
2019-06-27T07:27:04.828Z,24.50
2019-06-27T07:28:10.103Z,24.80
2019-06-27T07:29:14.906Z,25.10
2019-06-27T07:30:20.092Z,25.30
2019-06-27T07:31:24.958Z,25.30
2019-06-27T07:32:29.963Z,25.30
2019-06-27T07:33:34.778Z,25.40
2019-06-27T07:34:39.877Z,25.30
2019-06-27T07:35:44.806Z,25.10
2019-06-27T07:36:49.850Z,25.20
2019-06-27T07:37:54.642Z,25.00
2019-06-27T07:38:59.700Z,25.00
2019-06-27T07:40:23.815Z,24.80
2019-06-27T07:41:28.826Z,24.80
2019-06-27T07:42:33.787Z,24.80
2019-06-27T07:43:39.045Z,24.90
2019-06-27T07:44:43.863Z,24.90
2019-06-27T07:45:48.926Z,24.90
2019-06-27T07:46:53.731Z,24.60
2019-06-27T07:47:59.214Z,24.50
2019-06-27T07:49:04.176Z,24.50
2019-06-27T07:50:09.547Z,24.30
2019-06-27T07:51:14.426Z,24.30
2019-06-27T07:52:19.414Z,24.40
2019-06-27T07:53:24.245Z,24.70
2019-06-27T07:54:29.295Z,25.00
2019-06-27T07:55:34.238Z,25.30
2019-06-27T07:56:39.341Z,25.30
2019-06-27T07:57:44.273Z,25.20
2019-06-27T07:58:49.355Z,25.30
2019-06-27T07:59:54.246Z,25.20
2019-06-27T08:00:59.400Z,25.20
2019-06-27T08:02:04.234Z,25.30
2019-06-27T08:03:09.386Z,25.20
2019-06-27T08:04:14.249Z,25.30
2019-06-27T08:05:19.421Z,25.30
2019-06-27T08:06:24.298Z,25.40
2019-06-27T08:07:29.306Z,25.50
2019-06-27T08:08:34.208Z,25.80
2019-06-27T08:09:39.228Z,26.10
2019-06-27T08:10:44.157Z,26.20
2019-06-27T08:11:50.090Z,26.30
2019-06-27T08:12:54.965Z,26.30
2019-06-27T08:14:00.052Z,26.00
2019-06-27T08:15:05.217Z,25.90
2019-06-27T08:16:10.203Z,26.00
2019-06-27T08:17:15.057Z,26.10
2019-06-27T08:18:20.106Z,26.30
2019-06-27T08:19:24.978Z,26.00
2019-06-27T08:20:30.162Z,25.60
2019-06-27T08:21:35.017Z,25.50
2019-06-27T08:22:40.084Z,25.40
2019-06-27T08:23:44.886Z,25.40
2019-06-27T08:24:49.928Z,25.40
2019-06-27T08:25:54.980Z,25.70
2019-06-27T08:27:00.032Z,25.60
2019-06-27T08:28:04.858Z,25.40
2019-06-27T08:29:10.838Z,25.40
2019-06-27T08:30:16.179Z,25.50
2019-06-27T08:31:21.340Z,25.50
2019-06-27T08:32:26.327Z,25.60
2019-06-27T08:33:31.411Z,25.50
2019-06-27T08:34:36.240Z,25.50
2019-06-27T08:35:41.251Z,25.30
2019-06-27T08:36:46.116Z,25.20
2019-06-27T08:37:51.141Z,25.40
2019-06-27T08:38:56.228Z,25.50
2019-06-27T08:40:01.334Z,25.50
2019-06-27T08:41:07.170Z,25.70
2019-06-27T08:42:12.372Z,25.80
2019-06-27T08:43:17.338Z,25.70
2019-06-27T08:44:22.455Z,25.70
2019-06-27T08:45:27.446Z,25.50
2019-06-27T08:46:32.520Z,25.50
2019-06-27T08:47:37.420Z,25.50
2019-06-27T08:48:42.475Z,25.40
2019-06-27T08:49:47.420Z,25.60
2019-06-27T08:50:52.485Z,25.80
2019-06-27T08:51:57.497Z,25.90
2019-06-27T08:53:02.570Z,25.80
2019-06-27T08:54:07.468Z,25.50
2019-06-27T08:55:12.588Z,25.30
2019-06-27T08:56:17.390Z,25.30
2019-06-27T08:57:23.042Z,25.10
2019-06-27T08:58:27.897Z,25.20
2019-06-27T08:59:32.905Z,25.10
2019-06-27T09:00:37.785Z,25.10
2019-06-27T09:01:42.962Z,25.10
2019-06-27T09:02:47.838Z,25.10
2019-06-27T09:03:52.862Z,25.00
2019-06-27T09:04:57.685Z,24.70
2019-06-27T09:06:06.606Z,24.50
2019-06-27T09:07:11.528Z,24.50
2019-06-27T09:08:16.565Z,24.30
2019-06-27T09:09:21.489Z,24.20
2019-06-27T09:10:26.559Z,24.30
2019-06-27T09:11:33.860Z,24.20
2019-06-27T09:12:38.103Z,24.20
2019-06-27T09:13:43.012Z,24.10
2019-06-27T09:14:48.065Z,24.10
2019-06-27T09:15:52.920Z,24.10
2019-06-27T09:16:57.945Z,23.90
2019-06-27T09:18:02.859Z,23.80
2019-06-27T09:19:07.855Z,23.70
2019-06-27T09:20:13.305Z,23.70
2019-06-27T09:21:18.457Z,23.50
2019-06-27T09:22:23.286Z,23.30
2019-06-27T09:23:28.408Z,23.30
2019-06-27T09:24:33.298Z,23.40
2019-06-27T09:25:40.167Z,23.40
2019-06-27T09:26:45.231Z,23.40
2019-06-27T09:27:50.373Z,23.40
2019-06-27T09:28:55.277Z,23.40
2019-06-27T09:30:00.408Z,23.30
2019-06-27T09:31:05.436Z,23.30
2019-06-27T09:32:24.327Z,23.30
2019-06-27T09:33:16.988Z,23.40
2019-06-27T09:34:22.241Z,23.40
2019-06-27T09:35:27.215Z,23.40
2019-06-27T09:36:32.284Z,23.50
2019-06-27T09:37:37.311Z,23.50
2019-06-27T09:38:42.422Z,23.40
2019-06-27T09:39:47.364Z,23.40
2019-06-27T09:40:52.542Z,23.30
2019-06-27T09:41:57.362Z,23.30
2019-06-27T09:43:02.487Z,23.20
2019-06-27T09:44:07.440Z,23.10
2019-06-27T09:45:13.047Z,23.10
2019-06-27T09:46:17.904Z,23.10
2019-06-27T09:47:22.969Z,23.10
2019-06-27T09:48:27.853Z,23.10
2019-06-27T09:49:32.887Z,23.10
2019-06-27T09:50:37.693Z,23.10
2019-06-27T09:51:42.731Z,23.10
2019-06-27T09:52:47.582Z,23.10
2019-06-27T09:53:52.798Z,23.10
2019-06-27T09:54:59.281Z,23.20
2019-06-27T09:56:04.520Z,23.20
2019-06-27T09:57:09.422Z,23.20
2019-06-27T09:58:14.522Z,23.30
2019-06-27T09:59:19.488Z,23.20
2019-06-27T10:00:25.047Z,23.20
2019-06-27T10:01:30.042Z,23.20
2019-06-27T10:02:41.588Z,23.10
2019-06-27T10:03:41.765Z,23.10
2019-06-27T10:04:46.868Z,23.20
2019-06-27T10:05:51.759Z,23.20
2019-06-27T10:06:56.774Z,23.20
2019-06-27T10:08:01.687Z,23.30
2019-06-27T10:09:06.756Z,23.30
2019-06-27T10:10:11.990Z,23.40
2019-06-27T10:11:17.121Z,23.40
2019-06-27T10:12:22.062Z,23.40
2019-06-27T10:13:27.098Z,23.40
2019-06-27T10:14:31.923Z,23.50
2019-06-27T10:15:37.114Z,23.50
2019-06-27T10:16:42.143Z,23.50
2019-06-27T10:17:47.191Z,23.60
2019-06-27T10:18:52.384Z,23.60
2019-06-27T10:19:57.412Z,23.60
2019-06-27T10:21:02.271Z,23.60
2019-06-27T10:22:07.277Z,23.60
2019-06-27T10:23:12.103Z,23.50
2019-06-27T10:24:17.167Z,23.50
2019-06-27T10:25:21.997Z,23.50
2019-06-27T10:26:27.074Z,23.50
2019-06-27T10:27:32.033Z,23.50
2019-06-27T10:28:37.173Z,23.50
2019-06-27T10:29:42.078Z,23.50
2019-06-27T10:30:49.265Z,23.50
2019-06-27T10:31:53.732Z,23.60
2019-06-27T10:33:00.452Z,23.50
2019-06-27T10:34:05.506Z,23.50
2019-06-27T10:35:11.051Z,23.40
2019-06-27T10:36:15.889Z,23.40
2019-06-27T10:37:20.952Z,23.40
2019-06-27T10:38:25.848Z,23.40
2019-06-27T10:39:30.913Z,23.30
2019-06-27T10:40:36.398Z,23.30
2019-06-27T10:41:41.499Z,23.30
2019-06-27T10:42:46.426Z,23.30
2019-06-27T10:43:51.561Z,23.40
2019-06-27T10:44:56.412Z,23.40
2019-06-27T10:46:01.482Z,23.40
2019-06-27T10:47:06.417Z,23.40
2019-06-27T10:48:11.548Z,23.30
2019-06-27T10:49:16.535Z,23.40
2019-06-27T10:50:21.828Z,23.40
2019-06-27T10:51:26.715Z,23.30
2019-06-27T10:52:31.734Z,23.30
2019-06-27T10:53:36.657Z,23.30
2019-06-27T10:54:41.679Z,23.30
2019-06-27T10:55:46.570Z,23.30
2019-06-27T10:56:51.617Z,23.40
2019-06-27T10:57:56.617Z,23.40
2019-06-27T10:59:01.677Z,23.50
2019-06-27T11:00:07.858Z,23.60
2019-06-27T11:01:13.009Z,23.60
2019-06-27T11:02:18.813Z,23.50
2019-06-27T11:03:23.799Z,23.40
2019-06-27T11:04:31.104Z,23.30
2019-06-27T11:05:36.202Z,23.30
2019-06-27T11:06:41.136Z,23.40
2019-06-27T11:07:46.177Z,23.40
2019-06-27T11:08:52.058Z,23.40
2019-06-27T11:09:57.095Z,23.40
2019-06-27T11:11:02.067Z,23.50
2019-06-27T11:12:07.326Z,23.50
2019-06-27T11:13:12.323Z,23.50
2019-06-27T11:14:19.185Z,23.60
2019-06-27T11:15:24.110Z,23.60
2019-06-27T11:16:29.122Z,23.60
2019-06-27T11:17:37.059Z,23.50
2019-06-27T11:18:42.097Z,23.50
2019-06-27T11:19:52.275Z,23.50
2019-06-27T11:20:53.627Z,23.50
2019-06-27T11:21:59.227Z,23.60
2019-06-27T11:23:04.375Z,23.70
2019-06-27T11:24:09.270Z,23.60
2019-06-27T11:25:14.920Z,23.70
2019-06-27T11:26:19.743Z,23.70
2019-06-27T11:27:27.298Z,23.70
2019-06-27T11:28:32.360Z,23.70
2019-06-27T11:29:37.446Z,23.70
2019-06-27T11:30:42.286Z,23.60
2019-06-27T11:31:47.396Z,23.50
2019-06-27T11:32:52.344Z,23.50
2019-06-27T11:33:57.459Z,23.40
2019-06-27T11:35:02.374Z,23.50
2019-06-27T11:36:07.547Z,23.50
2019-06-27T11:37:12.434Z,23.50
2019-06-27T11:38:17.511Z,23.50
2019-06-27T11:39:23.354Z,23.60
2019-06-27T11:40:28.822Z,23.70
2019-06-27T11:41:33.663Z,23.70
2019-06-27T11:42:38.837Z,23.70
2019-06-27T11:43:43.666Z,23.70
2019-06-27T11:44:48.735Z,23.70
2019-06-27T11:45:53.647Z,23.70
2019-06-27T11:47:00.188Z,23.70
2019-06-27T11:48:05.168Z,23.70
2019-06-27T11:49:10.219Z,23.70
2019-06-27T11:50:15.390Z,23.80
2019-06-27T11:51:20.376Z,23.70
2019-06-27T11:52:26.466Z,23.60
2019-06-27T11:53:31.748Z,23.60
2019-06-27T11:54:36.736Z,23.50
2019-06-27T11:55:41.926Z,23.50
2019-06-27T11:56:46.799Z,23.50
2019-06-27T11:57:51.919Z,23.60
2019-06-27T11:58:56.831Z,23.70
2019-06-27T12:00:02.095Z,23.70
2019-06-27T12:01:08.087Z,23.60
2019-06-27T12:02:13.146Z,23.60
2019-06-27T12:03:17.966Z,23.70
2019-06-27T12:04:23.046Z,23.70
2019-06-27T12:05:27.930Z,23.70
2019-06-27T12:06:32.996Z,23.70
2019-06-27T12:07:37.878Z,23.80
2019-06-27T12:08:42.865Z,23.70
2019-06-27T12:09:47.736Z,23.70
2019-06-27T12:10:52.818Z,23.60
2019-06-27T12:11:57.669Z,23.70
2019-06-27T12:13:02.673Z,23.70
2019-06-27T12:14:07.557Z,23.70
2019-06-27T12:15:13.243Z,23.70
2019-06-27T12:16:18.118Z,23.70
2019-06-27T12:17:23.184Z,23.70
2019-06-27T12:18:28.016Z,23.70
2019-06-27T12:19:33.091Z,23.80
2019-06-27T12:20:37.951Z,23.80
2019-06-27T12:21:43.072Z,23.80
2019-06-27T12:22:47.879Z,23.80
2019-06-27T12:23:52.991Z,23.90
2019-06-27T12:24:58.080Z,23.90
2019-06-27T12:26:03.245Z,24.00
2019-06-27T12:27:08.117Z,24.00
2019-06-27T12:28:13.155Z,24.10
2019-06-27T12:29:17.947Z,24.00
2019-06-27T12:30:23.276Z,24.00
2019-06-27T12:31:28.167Z,24.00
2019-06-27T12:32:47.159Z,24.10
2019-06-27T12:33:39.746Z,24.10
2019-06-27T12:34:44.741Z,24.10
2019-06-27T12:35:49.657Z,24.10
2019-06-27T12:36:54.718Z,24.10
2019-06-27T12:37:59.694Z,24.10
2019-06-27T12:39:05.208Z,24.10
2019-06-27T12:40:10.785Z,24.10
2019-06-27T12:41:15.851Z,24.10
2019-06-27T12:42:32.121Z,24.20
2019-06-27T12:43:27.367Z,24.30
2019-06-27T12:44:32.171Z,24.30
2019-06-27T12:45:37.192Z,24.30
2019-06-27T12:46:42.130Z,24.30
2019-06-27T12:47:47.155Z,24.30
2019-06-27T12:48:52.338Z,24.30
2019-06-27T12:50:02.814Z,24.30
2019-06-27T12:51:03.936Z,24.40
2019-06-27T12:52:09.068Z,24.40
2019-06-27T12:53:16.970Z,24.50
2019-06-27T12:54:21.981Z,24.50
2019-06-27T12:55:26.872Z,24.40
2019-06-27T12:56:31.988Z,24.40
2019-06-27T12:57:36.974Z,24.40
2019-06-27T12:58:41.991Z,24.30
2019-06-27T12:59:46.831Z,24.30
2019-06-27T13:00:51.837Z,24.40
2019-06-27T13:01:56.719Z,24.50
2019-06-27T13:03:01.904Z,24.50
2019-06-27T13:04:22.248Z,24.60
2019-06-27T13:05:13.587Z,24.70
2019-06-27T13:06:18.408Z,24.70
2019-06-27T13:07:23.404Z,24.80
2019-06-27T13:08:28.222Z,24.80
2019-06-27T13:09:33.368Z,24.70
2019-06-27T13:10:38.607Z,24.80
2019-06-27T13:11:43.904Z,24.80
2019-06-27T13:12:48.697Z,24.80
2019-06-27T13:13:53.785Z,24.80
2019-06-27T13:14:59.378Z,24.80
2019-06-27T13:16:04.375Z,24.80
2019-06-27T13:17:09.157Z,24.80
2019-06-27T13:18:14.303Z,24.70
2019-06-27T13:19:19.238Z,24.70
2019-06-27T13:20:24.249Z,24.70
2019-06-27T13:21:29.051Z,24.70
2019-06-27T13:22:34.249Z,24.70
2019-06-27T13:23:39.062Z,24.70
2019-06-27T13:24:44.095Z,24.70
2019-06-27T13:25:48.919Z,24.70
2019-06-27T13:26:53.956Z,24.70
2019-06-27T13:27:59.400Z,24.80
2019-06-27T13:29:04.452Z,24.80
2019-06-27T13:30:09.639Z,24.80
2019-06-27T13:31:14.727Z,24.80
2019-06-27T13:32:19.748Z,24.80
2019-06-27T13:33:24.776Z,24.80
2019-06-27T13:34:40.343Z,24.80
2019-06-27T13:35:37.352Z,24.80
2019-06-27T13:36:42.277Z,24.80
2019-06-27T13:37:47.303Z,24.70
2019-06-27T13:38:52.134Z,24.70
2019-06-27T13:39:57.270Z,24.80
2019-06-27T13:41:02.618Z,24.80
2019-06-27T13:42:08.053Z,24.80
2019-06-27T13:43:12.964Z,24.80
2019-06-27T13:44:18.003Z,24.80
2019-06-27T13:45:26.382Z,24.90
2019-06-27T13:46:29.649Z,24.90
2019-06-27T13:47:34.562Z,24.90
2019-06-27T13:48:40.576Z,24.90
2019-06-27T13:49:45.578Z,25.00
2019-06-27T13:50:50.807Z,25.00
2019-06-27T13:51:55.699Z,25.00
2019-06-27T13:53:00.755Z,25.00
2019-06-27T13:54:05.668Z,25.00
2019-06-27T13:55:10.956Z,25.00
2019-06-27T13:56:15.799Z,25.00
2019-06-27T13:57:20.881Z,25.00
2019-06-27T13:58:25.798Z,25.10
2019-06-27T13:59:30.889Z,25.10